Buoy 13516

sailwx.info

Track history (hours):
 
Tides and Currents Weather Stations Pressure Air Temp Water Temp Dewpoint Dewpoint Depression Visibility Wind Speed Wind Dir Waves Ship Positions

Ao Chao Yang 13516

Last reported at 2016-Jul-30 08:11 UTC. Time now 2016-Jul-30 09:14 UTC.
Position N 30°01' W 040°32'.

Length 20 m.

Type: Fishing. MMSI: 412469022.

Water temperature 25.2 ° C

Date/timePositionNaut miles runAvg speedWind from/ knotsBaromVisibWave heightAir tempDewpointWater temp
2016-Jul-30 08:11N 30°01' W 040°32'1 0.8 25.2
2016-Jul-30 07:24N 30°01' W 040°31'0 0.0 25.2
2016-Jul-30 06:39N 30°01' W 040°31'0 2.1 25.2
2016-Jul-30 06:33N 30°01' W 040°31'1 5.0 25.2
2016-Jul-30 06:23N 30°01' W 040°30'2 1.1 25.2
2016-Jul-30 04:42N 30°02' W 040°28'0 0.0 25.2
2016-Jul-30 01:11N 30°02' W 040°28'0 8.2 25.2
2016-Jul-30 01:09N 30°02' W 040°28'0 0.1 25.2
2016-Jul-30 00:29N 30°02' W 040°28'0 4.7 25.2
2016-Jul-30 00:23N 30°02' W 040°27'0 0.1 25.2
2016-Jul-29 22:47N 30°02' W 040°27'1 6.7 25.2
2016-Jul-29 22:42N 30°03' W 040°27'0 0.0 25.2
2016-Jul-29 22:39N 30°03' W 040°27'0 0.4 25.2
2016-Jul-29 21:54N 30°03' W 040°26'0 0.7 25.3
2016-Jul-29 21:36N 30°03' W 040°26'0 2.0 25.3
2016-Jul-29 21:29N 30°03' W 040°26'0 0.0 25.3
2016-Jul-29 21:09N 30°03' W 040°26'0 0.8 25.3
2016-Jul-29 20:41N 30°03' W 040°26'0 2.4 25.3
2016-Jul-29 20:35N 30°03' W 040°26'0 0.4 25.4
2016-Jul-29 19:56N 30°03' W 040°25'111.0 25.4
2016-Jul-29 19:53N 30°04' W 040°25'0 0.0 25.4
2016-Jul-29 19:27N 30°04' W 040°25'0 3.6 25.4
2016-Jul-29 19:21N 30°04' W 040°25'0 0.0 25.4
2016-Jul-29 19:03N 30°04' W 040°25'1 0.6 25.4
2016-Jul-29 18:05N 30°03' W 040°25'0 0.5 25.4
2016-Jul-29 17:56N 30°03' W 040°25'1 0.4 25.4
2016-Jul-29 16:24N 30°04' W 040°24'1 0.3 25.4
2016-Jul-29 13:56N 30°04' W 040°23'0 0.3 25.3
2016-Jul-29 13:11N 30°04' W 040°23'0 1.6 25.2
2016-Jul-29 13:09N 30°04' W 040°23'0 0.5 25.2
2016-Jul-29 12:18N 30°04' W 040°23'0 0.2 25.2
2016-Jul-29 10:56N 30°04' W 040°23'1 2.2 25.2
2016-Jul-29 10:30N 30°04' W 040°21'0 0.0 25.2
2016-Jul-29 10:27N 30°04' W 040°21'0 0.0 25.2
2016-Jul-29 10:11N 30°04' W 040°21'0 0.2 25.2
2016-Jul-29 08:53N 30°04' W 040°21'0 0.0 25.2
2016-Jul-29 08:47N 30°04' W 040°21'0 0.0 25.2
2016-Jul-29 08:38N 30°04' W 040°21'1 0.9 25.2
2016-Jul-29 07:41N 30°03' W 040°20'1 5.0 25.2
2016-Jul-29 07:35N 30°04' W 040°20'0 0.0 25.2
2016-Jul-29 07:11N 30°04' W 040°20'0 1.0 25.2
2016-Jul-29 06:56N 30°04' W 040°20'0 0.0 25.2
2016-Jul-29 06:42N 30°04' W 040°20'0 3.5 25.2
2016-Jul-29 06:35N 30°04' W 040°19'2 1.4 25.2
2016-Jul-29 04:53N 30°04' W 040°16'0 0.0 25.2
2016-Jul-29 01:35N 30°04' W 040°16'1 8.2 25.3
2016-Jul-29 01:30N 30°05' W 040°16'0 0.1 25.3
2016-Jul-29 00:47N 30°05' W 040°16'0 1.6 25.3
2016-Jul-29 00:44N 30°05' W 040°16'1 1.0 25.3
2016-Jul-28 23:56N 30°05' W 040°15'0 0.3 25.4
2016-Jul-28 23:11N 30°06' W 040°15'0 0.7 25.4
2016-Jul-28 23:06N 30°06' W 040°15'1 5.5 25.4
2016-Jul-28 23:00N 30°06' W 040°15'0 0.0 25.4
2016-Jul-28 22:17N 30°06' W 040°15'0 1.2 25.4
2016-Jul-28 22:11N 30°06' W 040°15'0 0.0 25.4
2016-Jul-28 22:00N 30°06' W 040°15'0 1.2 25.4
2016-Jul-28 21:41N 30°06' W 040°15'0 0.2 25.4
2016-Jul-28 20:51N 30°06' W 040°15'0 0.2 25.4
2016-Jul-28 20:23N 30°06' W 040°15'1 0.7 25.4
2016-Jul-28 19:11N 30°06' W 040°14'0 0.0 25.5
2016-Jul-28 18:38N 30°06' W 040°14'0 0.2 25.5
2016-Jul-28 18:09N 30°06' W 040°14'1 0.5 25.5
2016-Jul-28 16:35N 30°06' W 040°13'1 0.6 25.5
2016-Jul-28 14:18N 30°06' W 040°12'117.4 25.4
2016-Jul-28 14:15N 30°06' W 040°11'0 0.2 25.4
2016-Jul-28 13:32N 30°06' W 040°11'1 4.7 25.3
2016-Jul-28 13:23N 30°06' W 040°10'1 0.8 25.3
2016-Jul-28 12:30N 30°07' W 040°10'1 0.4 25.2
2016-Jul-28 10:54N 30°07' W 040°09'0 0.0 25.2
2016-Jul-28 10:44N 30°07' W 040°09'0 0.2 25.2
2016-Jul-28 09:35N 30°07' W 040°09'0 0.9 25.2
2016-Jul-28 09:20N 30°07' W 040°09'1 2.1 25.2
2016-Jul-28 08:56N 30°08' W 040°08'0 0.2 25.2
2016-Jul-28 07:53N 30°08' W 040°08'0 0.0 25.2
2016-Jul-28 07:26N 30°08' W 040°08'0 0.0 25.2
2016-Jul-28 07:23N 30°08' W 040°08'0 1.9 25.2
2016-Jul-28 07:18N 30°08' W 040°08'0 0.0 25.2
2016-Jul-28 06:53N 30°08' W 040°08'3 0.5 25.2
2016-Jul-28 01:03N 30°09' W 040°05'0 0.0 25.4
2016-Jul-28 00:18N 30°09' W 040°05'0 0.2 25.4
2016-Jul-27 23:30N 30°09' W 040°05'0 1.0 25.5
2016-Jul-27 23:27N 30°09' W 040°05'0 3.1 25.5
2016-Jul-27 23:23N 30°10' W 040°05'0 0.0 25.5
2016-Jul-27 22:38N 30°10' W 040°05'0 0.2 25.5
2016-Jul-27 22:11N 30°10' W 040°05'0 0.1 25.6
2016-Jul-27 21:03N 30°10' W 040°05'0 4.3 25.6
2016-Jul-27 21:00N 30°10' W 040°04'0 2.1 25.6
2016-Jul-27 20:48N 30°10' W 040°05'0 4.2 25.6
2016-Jul-27 20:42N 30°10' W 040°04'1 1.6 25.6
2016-Jul-27 20:23N 30°10' W 040°04'0 0.0 25.6
2016-Jul-27 19:26N 30°10' W 040°04'0 0.7 25.7
2016-Jul-27 19:06N 30°10' W 040°04'0 0.6 25.7
2016-Jul-27 18:27N 30°10' W 040°03'1 6.0 25.7
2016-Jul-27 18:20N 30°10' W 040°03'0 0.0 25.7
2016-Jul-27 16:47N 30°10' W 040°03'0 0.0 25.5
2016-Jul-27 16:44N 30°10' W 040°03'1 0.8 25.5
2016-Jul-27 15:03N 30°10' W 040°01'0 0.0 25.4
2016-Jul-27 14:36N 30°10' W 040°01'0 0.0 25.4
2016-Jul-27 13:54N 30°10' W 040°01'1 3.9 25.3
2016-Jul-27 13:44N 30°10' W 040°01'1 0.5 25.3
2016-Jul-27 12:05N 30°11' W 040°00'1 0.6 25.1
2016-Jul-27 11:14N 30°11' W 039°60'0 0.0 25.1
2016-Jul-27 11:11N 30°11' W 039°60'0 0.0 25.1
2016-Jul-27 09:53N 30°11' W 039°60'0 2.9 25.1
2016-Jul-27 09:47N 30°11' W 039°59'0 0.0 25.1
2016-Jul-27 09:36N 30°11' W 039°59'0 0.0 25.1
2016-Jul-27 09:32N 30°11' W 039°59'0 2.1 25.1
2016-Jul-27 09:29N 30°11' W 039°59'1 0.6 25.1
2016-Jul-27 08:11N 30°12' W 039°59'0 0.8 25.1
2016-Jul-27 07:56N 30°12' W 039°59'0 1.6 25.1
2016-Jul-27 07:48N 30°12' W 039°59'0 0.5 25.1
2016-Jul-27 07:05N 30°12' W 039°59'1 1.6 25.1
2016-Jul-27 06:33N 30°13' W 039°59'1 0.5 25.1
2016-Jul-27 05:23N 30°13' W 039°59'212.9 25.1
2016-Jul-27 05:14N 30°13' W 039°56'0 0.0 25.1
2016-Jul-27 00:39N 30°13' W 039°56'0 0.0 25.2
2016-Jul-26 23:51N 30°13' W 039°56'0 0.9 25.2
2016-Jul-26 23:47N 30°13' W 039°56'1 0.6 25.2
2016-Jul-26 22:53N 30°13' W 039°56'1 3.4 25.2
2016-Jul-26 22:35N 30°13' W 039°55'0 0.3 25.2
2016-Jul-26 21:03N 30°14' W 039°55'1 6.2 25.4
2016-Jul-26 20:53N 30°14' W 039°54'0 0.0 25.4
2016-Jul-26 19:38N 30°14' W 039°54'0 0.2 25.4
2016-Jul-26 18:36N 30°14' W 039°54'112.7 25.4
2016-Jul-26 18:30N 30°15' W 039°53'0 0.1 25.4
2016-Jul-26 14:11N 30°15' W 039°53'112.1 25.1
2016-Jul-26 14:06N 30°16' W 039°52'0 0.0 25.1
2016-Jul-26 13:21N 30°16' W 039°52'2 2.1 25.1
2016-Jul-26 12:36N 30°16' W 039°51'0 0.0 25.1
2016-Jul-26 12:26N 30°16' W 039°51'0 0.5 25.1
2016-Jul-26 11:38N 30°16' W 039°50'0 0.0 25.0
2016-Jul-26 11:35N 30°16' W 039°50'0 0.0 25.0
2016-Jul-26 10:20N 30°16' W 039°50'0 0.0 25.0
2016-Jul-26 09:56N 30°16' W 039°50'0 3.1 25.0
2016-Jul-26 09:48N 30°17' W 039°50'0 0.0 25.0
2016-Jul-26 08:41N 30°17' W 039°50'0 4.2 25.0
2016-Jul-26 08:35N 30°17' W 039°50'0 0.2 25.0
2016-Jul-26 08:09N 30°17' W 039°50'1 0.7 25.0
2016-Jul-26 07:17N 30°17' W 039°49'0 1.6 25.0
2016-Jul-26 07:09N 30°18' W 039°49'0 0.3 25.0
2016-Jul-26 05:38N 30°18' W 039°49'0 1.4 25.0
2016-Jul-26 05:33N 30°18' W 039°49'1 6.4 25.0
2016-Jul-26 05:26N 30°19' W 039°48'0 0.0 25.0
2016-Jul-26 03:51N 30°19' W 039°48'119.0 25.0
2016-Jul-26 03:48N 30°19' W 039°47'0 0.0 25.0
2016-Jul-26 00:53N 30°19' W 039°47'0 0.0 25.1
2016-Jul-26 00:11N 30°19' W 039°47'1 6.7 25.1
2016-Jul-26 00:02N 30°19' W 039°46'0 0.0 25.1
2016-Jul-25 23:20N 30°19' W 039°46'0 0.0 25.1
2016-Jul-25 23:08N 30°19' W 039°46'0 0.0 25.1
2016-Jul-25 22:32N 30°19' W 039°46'1 0.9 25.1
2016-Jul-25 21:33N 30°20' W 039°45'1 0.5 25.1
2016-Jul-25 19:53N 30°20' W 039°44'0 1.6 25.2
2016-Jul-25 19:50N 30°20' W 039°45'0 0.0 25.2
2016-Jul-25 19:47N 30°20' W 039°45'0 0.4 25.2
2016-Jul-25 18:48N 30°20' W 039°44'0 4.7 25.2
2016-Jul-25 18:44N 30°20' W 039°44'0 0.3 25.2
2016-Jul-25 18:15N 30°20' W 039°44'1 1.0 25.2
2016-Jul-25 17:00N 30°21' W 039°43'3 0.5 25.2
2016-Jul-25 11:09N 30°23' W 039°40'1 0.7 25.0
2016-Jul-25 10:09N 30°23' W 039°40'0 3.1 25.0
2016-Jul-25 10:08N 30°23' W 039°40'0 3.4 25.0
2016-Jul-25 10:00N 30°23' W 039°40'0 0.0 25.0
2016-Jul-25 09:11N 30°23' W 039°40'1 1.4 25.0
2016-Jul-25 08:44N 30°24' W 039°39'0 0.0 25.0
2016-Jul-25 08:29N 30°24' W 039°39'0 0.8 25.0
2016-Jul-25 08:20N 30°24' W 039°39'0 0.6 25.0
2016-Jul-25 07:38N 30°24' W 039°39'0 0.9 25.0
2016-Jul-25 07:27N 30°24' W 039°39'0 2.0 25.0
2016-Jul-25 07:23N 30°24' W 039°39'1 1.4 25.0
2016-Jul-25 06:57N 30°25' W 039°39'0 0.0 25.0
2016-Jul-25 05:50N 30°25' W 039°39'2 8.0 25.0
2016-Jul-25 05:36N 30°26' W 039°37'0 0.0 25.0
2016-Jul-25 00:33N 30°26' W 039°37'0 2.3 25.1
2016-Jul-25 00:26N 30°26' W 039°37'1 0.4 25.1
2016-Jul-24 22:51N 30°26' W 039°36'0 0.2 25.1
2016-Jul-24 22:05N 30°27' W 039°36'0 1.6 25.1
2016-Jul-24 22:02N 30°27' W 039°36'0 0.7 25.1
2016-Jul-24 21:42N 30°27' W 039°36'0 3.2 25.1
2016-Jul-24 21:39N 30°27' W 039°36'1 8.8 25.1
2016-Jul-24 21:35N 30°27' W 039°35'0 0.1 25.1
2016-Jul-24 20:26N 30°27' W 039°35'0 3.5 25.2
2016-Jul-24 20:18N 30°27' W 039°35'0 0.0 25.2
2016-Jul-24 20:15N 30°27' W 039°35'1 2.7 25.2
2016-Jul-24 20:02N 30°28' W 039°35'1 5.9 25.2
2016-Jul-24 19:56N 30°27' W 039°35'1 0.6 25.2
2016-Jul-24 18:59N 30°28' W 039°35'0 0.9 25.2
2016-Jul-24 18:41N 30°28' W 039°35'1 2.0 25.2
2016-Jul-24 18:18N 30°28' W 039°34'0 0.0 25.2
2016-Jul-24 17:21N 30°28' W 039°34'1 4.0 25.1
2016-Jul-24 17:11N 30°28' W 039°33'2 0.4 25.1
2016-Jul-24 13:11N 30°28' W 039°31'124.3 25.0
2016-Jul-24 13:08N 30°29' W 039°30'0 0.1 25.0
2016-Jul-24 11:36N 30°29' W 039°30'0 0.0 25.0
2016-Jul-24 11:32N 30°29' W 039°30'0 9.5 25.0
2016-Jul-24 11:29N 30°30' W 039°30'0 0.0 25.0
2016-Jul-24 10:44N 30°30' W 039°30'1 1.1 25.0
2016-Jul-24 10:11N 30°30' W 039°30'0 0.0 24.9
2016-Jul-24 09:41N 30°30' W 039°30'112.7 24.9
2016-Jul-24 09:38N 30°31' W 039°29'0 0.2 25.0
2016-Jul-24 09:03N 30°31' W 039°29'1 1.2 24.9
2016-Jul-24 08:32N 30°31' W 039°29'0 9.4 24.9
2016-Jul-24 08:29N 30°32' W 039°29'0 1.4 24.9
2016-Jul-24 08:08N 30°31' W 039°29'0 0.8 25.0
2016-Jul-24 07:35N 30°31' W 039°29'0 5.7 25.0
2016-Jul-24 07:32N 30°32' W 039°29'0 0.0 25.0
2016-Jul-24 07:26N 30°32' W 039°29'0 0.0 25.0
2016-Jul-24 07:21N 30°32' W 039°29'117.3 25.0
2016-Jul-24 07:18N 30°32' W 039°28'0 0.0 25.0
2016-Jul-24 06:26N 30°32' W 039°28'0 0.0 25.0
2016-Jul-24 05:56N 30°32' W 039°28'1 0.7 25.0
2016-Jul-24 04:11N 30°33' W 039°29'126.4 25.0
2016-Jul-24 04:09N 30°34' W 039°28'0 0.0 25.0
2016-Jul-24 00:53N 30°34' W 039°28'0 1.0 25.1
2016-Jul-24 00:50N 30°34' W 039°28'1 0.4 25.1
2016-Jul-23 23:11N 30°34' W 039°27'0 0.3 25.1
2016-Jul-23 22:33N 30°34' W 039°27'0 0.4 25.1
2016-Jul-23 21:53N 30°34' W 039°27'1 6.6 25.1
2016-Jul-23 21:47N 30°34' W 039°26'0 0.0 25.1
2016-Jul-23 20:56N 30°34' W 039°26'1 3.5 25.2
2016-Jul-23 20:47N 30°34' W 039°25'0 0.0 25.2
2016-Jul-23 20:44N 30°34' W 039°25'0 2.9 25.2
2016-Jul-23 20:36N 30°35' W 039°26'0 0.0 25.2
2016-Jul-23 20:14N 30°35' W 039°26'0 0.0 25.2
2016-Jul-23 20:09N 30°35' W 039°26'0 0.4 25.2
2016-Jul-23 19:05N 30°35' W 039°25'0 0.6 25.2
2016-Jul-23 18:30N 30°35' W 039°25'1 0.7 25.2
2016-Jul-23 17:33N 30°35' W 039°24'0 1.1 25.2
2016-Jul-23 17:24N 30°35' W 039°24'1 1.0 25.1
2016-Jul-23 15:51N 30°36' W 039°23'1 0.5 25.1
2016-Jul-23 13:36N 30°37' W 039°22'1 0.6 24.9
2016-Jul-23 11:56N 30°38' W 039°21'1 5.5 24.9
2016-Jul-23 11:48N 30°38' W 039°21'0 0.0 24.9
2016-Jul-23 10:30N 30°38' W 039°21'0 2.3 24.8
2016-Jul-23 10:23N 30°38' W 039°22'0 0.0 24.8
2016-Jul-23 10:14N 30°38' W 039°22'111.9 24.8
2016-Jul-23 10:11N 30°39' W 039°21'0 0.0 24.8
2016-Jul-23 09:33N 30°39' W 039°21'0 0.6 24.8
2016-Jul-23 08:50N 30°39' W 039°21'0 0.0 24.8
2016-Jul-23 08:39N 30°39' W 039°21'0 4.0 24.8
2016-Jul-23 08:32N 30°39' W 039°20'0 0.0 24.8
2016-Jul-23 07:53N 30°39' W 039°20'1 6.7 24.8
2016-Jul-23 07:47N 30°40' W 039°20'0 0.2 24.8
2016-Jul-23 06:59N 30°39' W 039°20'1 1.1 24.8
2016-Jul-23 06:11N 30°40' W 039°19'0 0.0 24.9
2016-Jul-23 06:08N 30°40' W 039°19'1 8.6 24.9
2016-Jul-23 05:59N 30°41' W 039°19'2 1.0 24.9
2016-Jul-23 04:20N 30°42' W 039°18'0 0.1 24.9
2016-Jul-23 01:11N 30°42' W 039°18'115.9 25.0
2016-Jul-23 01:08N 30°42' W 039°18'1 0.7 25.0
2016-Jul-22 23:26N 30°43' W 039°17'0 0.0 25.0
2016-Jul-22 23:23N 30°43' W 039°17'0 0.0 25.0
2016-Jul-22 23:02N 30°43' W 039°17'1 0.6 25.0
2016-Jul-22 21:59N 30°43' W 039°16'0 0.0 25.1
2016-Jul-22 21:27N 30°43' W 039°16'0 0.8 25.1
2016-Jul-22 21:11N 30°43' W 039°17'0 1.6 25.1
2016-Jul-22 21:05N 30°43' W 039°16'0 0.5 25.1
2016-Jul-22 20:26N 30°43' W 039°16'0 0.0 25.1
2016-Jul-22 20:21N 30°43' W 039°16'0 0.7 25.1
2016-Jul-22 19:47N 30°43' W 039°16'0 1.2 25.1
2016-Jul-22 19:39N 30°43' W 039°16'0 0.0 25.1
2016-Jul-22 19:32N 30°43' W 039°16'1 0.7 25.1
2016-Jul-22 17:41N 30°43' W 039°14'0 0.0 25.1
2016-Jul-22 17:39N 30°43' W 039°14'1 0.8 25.1
2016-Jul-22 16:03N 30°44' W 039°13'1 0.5 25.1
2016-Jul-22 13:56N 30°45' W 039°12'1 4.4 25.0
2016-Jul-22 13:47N 30°45' W 039°11'0 0.1
2016-Jul-22 12:11N 30°45' W 039°12'0 4.7
2016-Jul-22 12:09N 30°45' W 039°12'1 0.7 24.9
2016-Jul-22 10:42N 30°45' W 039°11'0 0.4 24.8
2016-Jul-22 09:56N 30°45' W 039°10'1 4.3 24.8
2016-Jul-22 09:48N 30°45' W 039°10'1 1.4 24.8
2016-Jul-22 08:54N 30°46' W 039°09'1 0.8 24.8
2016-Jul-22 08:06N 30°47' W 039°08'0 0.0 24.8
2016-Jul-22 07:56N 30°47' W 039°08'0 0.0 24.8
2016-Jul-22 07:30N 30°47' W 039°08'0 1.4 24.9
2016-Jul-22 07:20N 30°47' W 039°08'1 0.8 24.9
2016-Jul-22 06:18N 30°48' W 039°07'1 8.7 24.9
2016-Jul-22 06:11N 30°49' W 039°07'1 0.5 24.9
2016-Jul-22 04:32N 30°49' W 039°07'0 0.0 24.9
2016-Jul-22 00:41N 30°49' W 039°07'1 5.1 25.0
2016-Jul-22 00:35N 30°49' W 039°06'0 0.0 25.0
2016-Jul-21 23:54N 30°49' W 039°06'1 0.7 25.0
2016-Jul-21 23:03N 30°49' W 039°06'1 0.5 25.1
2016-Jul-21 21:36N 30°49' W 039°05'1 5.3 25.1
2016-Jul-21 21:29N 30°49' W 039°04'0 0.0 25.1
2016-Jul-21 20:36N 30°49' W 039°04'0 0.0 25.1
2016-Jul-21 20:30N 30°49' W 039°04'0 0.5 25.1
2016-Jul-21 20:09N 30°49' W 039°04'0 0.2 25.1
2016-Jul-21 19:56N 30°49' W 039°04'1 0.9 25.1
2016-Jul-21 18:54N 30°50' W 039°03'0 3.7 25.1
2016-Jul-21 18:48N 30°50' W 039°03'0 0.3 25.1
2016-Jul-21 18:15N 30°50' W 039°03'0 0.0 25.1
2016-Jul-21 17:54N 30°50' W 039°03'1 0.5 25.1
2016-Jul-21 16:11N 30°50' W 039°02'3 0.7 25.1
2016-Jul-21 12:39N 30°50' W 038°59'0 0.0 24.9
2016-Jul-21 12:32N 30°50' W 038°59'123.8 24.9
2016-Jul-21 12:29N 30°50' W 038°58'1 0.8 24.9
2016-Jul-21 11:38N 30°50' W 038°57'0 0.0 24.9
2016-Jul-21 10:56N 30°50' W 038°57'0 2.3 24.9
2016-Jul-21 10:51N 30°51' W 038°57'1 1.3 24.9
2016-Jul-21 10:11N 30°51' W 038°57'0 0.0 24.9
2016-Jul-21 09:41N 30°51' W 038°57'0 2.4 24.8
2016-Jul-21 09:38N 30°51' W 038°57'1 8.7 24.8
2016-Jul-21 09:33N 30°52' W 038°57'0 0.0 24.8
2016-Jul-21 09:09N 30°52' W 038°57'1 1.0 24.9
2016-Jul-21 08:35N 30°52' W 038°56'1 1.4 24.9
2016-Jul-21 08:02N 30°53' W 038°56'1 1.9 24.9
2016-Jul-21 07:27N 30°54' W 038°56'0 0.0 24.9
2016-Jul-21 06:56N 30°54' W 038°56'0 6.2
2016-Jul-21 06:54N 30°54' W 038°55'0 0.2 25.0
2016-Jul-21 06:29N 30°54' W 038°56'1 4.5 25.0
2016-Jul-21 06:20N 30°55' W 038°56'1 0.5 25.0
2016-Jul-21 04:44N 30°54' W 038°56'0 0.0 25.0
2016-Jul-21 01:03N 30°54' W 038°56'0 1.1 25.0
2016-Jul-21 00:56N 30°54' W 038°55'1 0.9 25.0
2016-Jul-21 00:11N 30°54' W 038°55'1 0.9 25.1
2016-Jul-20 23:24N 30°54' W 038°54'1 3.6 25.1
2016-Jul-20 23:14N 30°54' W 038°53'0 0.0 25.1
2016-Jul-20 22:35N 30°54' W 038°53'0 2.1 25.1
2016-Jul-20 22:32N 30°54' W 038°53'0 3.6 25.1
2016-Jul-20 22:26N 30°54' W 038°53'0 1.0 25.1
2016-Jul-20 21:59N 30°54' W 038°53'0 0.0 25.1
2016-Jul-20 21:41N 30°54' W 038°53'1 0.6 25.1
2016-Jul-20 20:48N 30°54' W 038°52'0 1.0 25.2
2016-Jul-20 20:42N 30°54' W 038°52'0 9.5 25.2
2016-Jul-20 20:39N 30°55' W 038°51'0 1.3 25.2
2016-Jul-20 20:23N 30°54' W 038°51'1 3.2 25.2
2016-Jul-20 20:11N 30°55' W 038°51'0 0.0
2016-Jul-20 19:05N 30°55' W 038°51'0 0.0 25.2
2016-Jul-20 19:00N 30°55' W 038°51'1 2.4 25.2
2016-Jul-20 18:39N 30°55' W 038°50'0 0.0 25.2
2016-Jul-20 18:06N 30°55' W 038°50'1 0.6 25.2
2016-Jul-20 16:26N 30°56' W 038°49'3 1.0 25.2
2016-Jul-20 13:44N 30°57' W 038°46'0 0.0 25.1
2016-Jul-20 13:00N 30°57' W 038°46'1 3.6 25.1
2016-Jul-20 12:48N 30°57' W 038°46'1 0.6 25.1
2016-Jul-20 11:56N 30°58' W 038°45'0 0.0 25.0
2016-Jul-20 11:17N 30°58' W 038°45'0 0.6 25.0
2016-Jul-20 11:11N 30°58' W 038°45'0 2.5 25.0
2016-Jul-20 11:03N 30°58' W 038°45'0 7.2 25.0
2016-Jul-20 10:59N 30°58' W 038°45'0 0.0 25.0
2016-Jul-20 10:41N 30°58' W 038°45'0 0.4 25.0
2016-Jul-20 10:09N 30°58' W 038°45'1 7.7 25.0
2016-Jul-20 10:05N 30°58' W 038°45'1 0.9 25.0
2016-Jul-20 09:15N 30°59' W 038°45'0 0.4 25.0
2016-Jul-20 08:56N 30°59' W 038°45'0 0.0 25.0
2016-Jul-20 08:33N 30°59' W 038°45'1 3.9 25.0
2016-Jul-20 08:24N 30°59' W 038°44'   25.0
Track history (hours):
 
Tides and Currents Weather Stations Pressure Air Temp Water Temp Dewpoint Dewpoint Depression Visibility Wind Speed Wind Dir Waves Ship Positions

Ao Chao Yang 13516

Last reported at 2016-Jul-30 08:11 UTC. Time now 2016-Jul-30 09:14 UTC.
Position N 30°01' W 040°32'.

Length 20 m.

Type: Fishing. MMSI: 412469022.

Water temperature 25.2 ° C

Date/timePositionNaut miles runAvg speedWind from/ knotsBaromVisibWave heightAir tempDewpointWater temp
2016-Jul-30 08:11N 30°01' W 040°32'1 0.8 25.2
2016-Jul-30 07:24N 30°01' W 040°31'0 0.0 25.2
2016-Jul-30 06:39N 30°01' W 040°31'0 2.1 25.2
2016-Jul-30 06:33N 30°01' W 040°31'1 5.0 25.2
2016-Jul-30 06:23N 30°01' W 040°30'2 1.1 25.2
2016-Jul-30 04:42N 30°02' W 040°28'0 0.0 25.2
2016-Jul-30 01:11N 30°02' W 040°28'0 8.2 25.2
2016-Jul-30 01:09N 30°02' W 040°28'0 0.1 25.2
2016-Jul-30 00:29N 30°02' W 040°28'0 4.7 25.2
2016-Jul-30 00:23N 30°02' W 040°27'0 0.1 25.2
2016-Jul-29 22:47N 30°02' W 040°27'1 6.7 25.2
2016-Jul-29 22:42N 30°03' W 040°27'0 0.0 25.2
2016-Jul-29 22:39N 30°03' W 040°27'0 0.4 25.2
2016-Jul-29 21:54N 30°03' W 040°26'0 0.7 25.3
2016-Jul-29 21:36N 30°03' W 040°26'0 2.0 25.3
2016-Jul-29 21:29N 30°03' W 040°26'0 0.0 25.3
2016-Jul-29 21:09N 30°03' W 040°26'0 0.8 25.3
2016-Jul-29 20:41N 30°03' W 040°26'0 2.4 25.3
2016-Jul-29 20:35N 30°03' W 040°26'0 0.4 25.4
2016-Jul-29 19:56N 30°03' W 040°25'111.0 25.4
2016-Jul-29 19:53N 30°04' W 040°25'0 0.0 25.4
2016-Jul-29 19:27N 30°04' W 040°25'0 3.6 25.4
2016-Jul-29 19:21N 30°04' W 040°25'0 0.0 25.4
2016-Jul-29 19:03N 30°04' W 040°25'1 0.6 25.4
2016-Jul-29 18:05N 30°03' W 040°25'0 0.5 25.4
2016-Jul-29 17:56N 30°03' W 040°25'1 0.4 25.4
2016-Jul-29 16:24N 30°04' W 040°24'1 0.3 25.4
2016-Jul-29 13:56N 30°04' W 040°23'0 0.3 25.3
2016-Jul-29 13:11N 30°04' W 040°23'0 1.6 25.2
2016-Jul-29 13:09N 30°04' W 040°23'0 0.5 25.2
2016-Jul-29 12:18N 30°04' W 040°23'0 0.2 25.2
2016-Jul-29 10:56N 30°04' W 040°23'1 2.2 25.2
2016-Jul-29 10:30N 30°04' W 040°21'0 0.0 25.2
2016-Jul-29 10:27N 30°04' W 040°21'0 0.0 25.2
2016-Jul-29 10:11N 30°04' W 040°21'0 0.2 25.2
2016-Jul-29 08:53N 30°04' W 040°21'0 0.0 25.2
2016-Jul-29 08:47N 30°04' W 040°21'0 0.0 25.2
2016-Jul-29 08:38N 30°04' W 040°21'1 0.9 25.2
2016-Jul-29 07:41N 30°03' W 040°20'1 5.0 25.2
2016-Jul-29 07:35N 30°04' W 040°20'0 0.0 25.2
2016-Jul-29 07:11N 30°04' W 040°20'0 1.0 25.2
2016-Jul-29 06:56N 30°04' W 040°20'0 0.0 25.2
2016-Jul-29 06:42N 30°04' W 040°20'0 3.5 25.2
2016-Jul-29 06:35N 30°04' W 040°19'2 1.4 25.2
2016-Jul-29 04:53N 30°04' W 040°16'0 0.0 25.2
2016-Jul-29 01:35N 30°04' W 040°16'1 8.2 25.3
2016-Jul-29 01:30N 30°05' W 040°16'0 0.1 25.3
2016-Jul-29 00:47N 30°05' W 040°16'0 1.6 25.3
2016-Jul-29 00:44N 30°05' W 040°16'1 1.0 25.3
2016-Jul-28 23:56N 30°05' W 040°15'0 0.3 25.4
2016-Jul-28 23:11N 30°06' W 040°15'0 0.7 25.4
2016-Jul-28 23:06N 30°06' W 040°15'1 5.5 25.4
2016-Jul-28 23:00N 30°06' W 040°15'0 0.0 25.4
2016-Jul-28 22:17N 30°06' W 040°15'0 1.2 25.4
2016-Jul-28 22:11N 30°06' W 040°15'0 0.0 25.4
2016-Jul-28 22:00N 30°06' W 040°15'0 1.2 25.4
2016-Jul-28 21:41N 30°06' W 040°15'0 0.2 25.4
2016-Jul-28 20:51N 30°06' W 040°15'0 0.2 25.4
2016-Jul-28 20:23N 30°06' W 040°15'1 0.7 25.4
2016-Jul-28 19:11N 30°06' W 040°14'0 0.0 25.5
2016-Jul-28 18:38N 30°06' W 040°14'0 0.2 25.5
2016-Jul-28 18:09N 30°06' W 040°14'1 0.5 25.5
2016-Jul-28 16:35N 30°06' W 040°13'1 0.6 25.5
2016-Jul-28 14:18N 30°06' W 040°12'117.4 25.4
2016-Jul-28 14:15N 30°06' W 040°11'0 0.2 25.4
2016-Jul-28 13:32N 30°06' W 040°11'1 4.7 25.3
2016-Jul-28 13:23N 30°06' W 040°10'1 0.8 25.3
2016-Jul-28 12:30N 30°07' W 040°10'1 0.4 25.2
2016-Jul-28 10:54N 30°07' W 040°09'0 0.0 25.2
2016-Jul-28 10:44N 30°07' W 040°09'0 0.2 25.2
2016-Jul-28 09:35N 30°07' W 040°09'0 0.9 25.2
2016-Jul-28 09:20N 30°07' W 040°09'1 2.1 25.2
2016-Jul-28 08:56N 30°08' W 040°08'0 0.2 25.2
2016-Jul-28 07:53N 30°08' W 040°08'0 0.0 25.2
2016-Jul-28 07:26N 30°08' W 040°08'0 0.0 25.2
2016-Jul-28 07:23N 30°08' W 040°08'0 1.9 25.2
2016-Jul-28 07:18N 30°08' W 040°08'0 0.0 25.2
2016-Jul-28 06:53N 30°08' W 040°08'3 0.5 25.2
2016-Jul-28 01:03N 30°09' W 040°05'0 0.0 25.4
2016-Jul-28 00:18N 30°09' W 040°05'0 0.2 25.4
2016-Jul-27 23:30N 30°09' W 040°05'0 1.0 25.5
2016-Jul-27 23:27N 30°09' W 040°05'0 3.1 25.5
2016-Jul-27 23:23N 30°10' W 040°05'0 0.0 25.5
2016-Jul-27 22:38N 30°10' W 040°05'0 0.2 25.5
2016-Jul-27 22:11N 30°10' W 040°05'0 0.1 25.6
2016-Jul-27 21:03N 30°10' W 040°05'0 4.3 25.6
2016-Jul-27 21:00N 30°10' W 040°04'0 2.1 25.6
2016-Jul-27 20:48N 30°10' W 040°05'0 4.2 25.6
2016-Jul-27 20:42N 30°10' W 040°04'1 1.6 25.6
2016-Jul-27 20:23N 30°10' W 040°04'0 0.0 25.6
2016-Jul-27 19:26N 30°10' W 040°04'0 0.7 25.7
2016-Jul-27 19:06N 30°10' W 040°04'0 0.6 25.7
2016-Jul-27 18:27N 30°10' W 040°03'1 6.0 25.7
2016-Jul-27 18:20N 30°10' W 040°03'0 0.0 25.7
2016-Jul-27 16:47N 30°10' W 040°03'0 0.0 25.5
2016-Jul-27 16:44N 30°10' W 040°03'1 0.8 25.5
2016-Jul-27 15:03N 30°10' W 040°01'0 0.0 25.4
2016-Jul-27 14:36N 30°10' W 040°01'0 0.0 25.4
2016-Jul-27 13:54N 30°10' W 040°01'1 3.9 25.3
2016-Jul-27 13:44N 30°10' W 040°01'1 0.5 25.3
2016-Jul-27 12:05N 30°11' W 040°00'1 0.6 25.1
2016-Jul-27 11:14N 30°11' W 039°60'0 0.0 25.1
2016-Jul-27 11:11N 30°11' W 039°60'0 0.0 25.1
2016-Jul-27 09:53N 30°11' W 039°60'0 2.9 25.1
2016-Jul-27 09:47N 30°11' W 039°59'0 0.0 25.1
2016-Jul-27 09:36N 30°11' W 039°59'0 0.0 25.1
2016-Jul-27 09:32N 30°11' W 039°59'0 2.1 25.1
2016-Jul-27 09:29N 30°11' W 039°59'1 0.6 25.1
2016-Jul-27 08:11N 30°12' W 039°59'0 0.8 25.1
2016-Jul-27 07:56N 30°12' W 039°59'0 1.6 25.1
2016-Jul-27 07:48N 30°12' W 039°59'0 0.5 25.1
2016-Jul-27 07:05N 30°12' W 039°59'1 1.6 25.1
2016-Jul-27 06:33N 30°13' W 039°59'1 0.5 25.1
2016-Jul-27 05:23N 30°13' W 039°59'212.9 25.1
2016-Jul-27 05:14N 30°13' W 039°56'0 0.0 25.1
2016-Jul-27 00:39N 30°13' W 039°56'0 0.0 25.2
2016-Jul-26 23:51N 30°13' W 039°56'0 0.9 25.2
2016-Jul-26 23:47N 30°13' W 039°56'1 0.6 25.2
2016-Jul-26 22:53N 30°13' W 039°56'1 3.4 25.2
2016-Jul-26 22:35N 30°13' W 039°55'0 0.3 25.2
2016-Jul-26 21:03N 30°14' W 039°55'1 6.2 25.4
2016-Jul-26 20:53N 30°14' W 039°54'0 0.0 25.4
2016-Jul-26 19:38N 30°14' W 039°54'0 0.2 25.4
2016-Jul-26 18:36N 30°14' W 039°54'112.7 25.4
2016-Jul-26 18:30N 30°15' W 039°53'0 0.1 25.4
2016-Jul-26 14:11N 30°15' W 039°53'112.1 25.1
2016-Jul-26 14:06N 30°16' W 039°52'0 0.0 25.1
2016-Jul-26 13:21N 30°16' W 039°52'2 2.1 25.1
2016-Jul-26 12:36N 30°16' W 039°51'0 0.0 25.1
2016-Jul-26 12:26N 30°16' W 039°51'0 0.5 25.1
2016-Jul-26 11:38N 30°16' W 039°50'0 0.0 25.0
2016-Jul-26 11:35N 30°16' W 039°50'0 0.0 25.0
2016-Jul-26 10:20N 30°16' W 039°50'0 0.0 25.0
2016-Jul-26 09:56N 30°16' W 039°50'0 3.1 25.0
2016-Jul-26 09:48N 30°17' W 039°50'0 0.0 25.0
2016-Jul-26 08:41N 30°17' W 039°50'0 4.2 25.0
2016-Jul-26 08:35N 30°17' W 039°50'0 0.2 25.0
2016-Jul-26 08:09N 30°17' W 039°50'1 0.7 25.0
2016-Jul-26 07:17N 30°17' W 039°49'0 1.6 25.0
2016-Jul-26 07:09N 30°18' W 039°49'0 0.3 25.0
2016-Jul-26 05:38N 30°18' W 039°49'0 1.4 25.0
2016-Jul-26 05:33N 30°18' W 039°49'1 6.4 25.0
2016-Jul-26 05:26N 30°19' W 039°48'0 0.0 25.0
2016-Jul-26 03:51N 30°19' W 039°48'119.0 25.0
2016-Jul-26 03:48N 30°19' W 039°47'0 0.0 25.0
2016-Jul-26 00:53N 30°19' W 039°47'0 0.0 25.1
2016-Jul-26 00:11N 30°19' W 039°47'1 6.7 25.1
2016-Jul-26 00:02N 30°19' W 039°46'0 0.0 25.1
2016-Jul-25 23:20N 30°19' W 039°46'0 0.0 25.1
2016-Jul-25 23:08N 30°19' W 039°46'0 0.0 25.1
2016-Jul-25 22:32N 30°19' W 039°46'1 0.9 25.1
2016-Jul-25 21:33N 30°20' W 039°45'1 0.5 25.1
2016-Jul-25 19:53N 30°20' W 039°44'0 1.6 25.2
2016-Jul-25 19:50N 30°20' W 039°45'0 0.0 25.2
2016-Jul-25 19:47N 30°20' W 039°45'0 0.4 25.2
2016-Jul-25 18:48N 30°20' W 039°44'0 4.7 25.2
2016-Jul-25 18:44N 30°20' W 039°44'0 0.3 25.2
2016-Jul-25 18:15N 30°20' W 039°44'1 1.0 25.2
2016-Jul-25 17:00N 30°21' W 039°43'3 0.5 25.2
2016-Jul-25 11:09N 30°23' W 039°40'1 0.7 25.0
2016-Jul-25 10:09N 30°23' W 039°40'0 3.1 25.0
2016-Jul-25 10:08N 30°23' W 039°40'0 3.4 25.0
2016-Jul-25 10:00N 30°23' W 039°40'0 0.0 25.0
2016-Jul-25 09:11N 30°23' W 039°40'1 1.4 25.0
2016-Jul-25 08:44N 30°24' W 039°39'0 0.0 25.0
2016-Jul-25 08:29N 30°24' W 039°39'0 0.8 25.0
2016-Jul-25 08:20N 30°24' W 039°39'0 0.6 25.0
2016-Jul-25 07:38N 30°24' W 039°39'0 0.9 25.0
2016-Jul-25 07:27N 30°24' W 039°39'0 2.0 25.0
2016-Jul-25 07:23N 30°24' W 039°39'1 1.4 25.0
2016-Jul-25 06:57N 30°25' W 039°39'0 0.0 25.0
2016-Jul-25 05:50N 30°25' W 039°39'2 8.0 25.0
2016-Jul-25 05:36N 30°26' W 039°37'0 0.0 25.0
2016-Jul-25 00:33N 30°26' W 039°37'0 2.3 25.1
2016-Jul-25 00:26N 30°26' W 039°37'1 0.4 25.1
2016-Jul-24 22:51N 30°26' W 039°36'0 0.2 25.1
2016-Jul-24 22:05N 30°27' W 039°36'0 1.6 25.1
2016-Jul-24 22:02N 30°27' W 039°36'0 0.7 25.1
2016-Jul-24 21:42N 30°27' W 039°36'0 3.2 25.1
2016-Jul-24 21:39N 30°27' W 039°36'1 8.8 25.1
2016-Jul-24 21:35N 30°27' W 039°35'0 0.1 25.1
2016-Jul-24 20:26N 30°27' W 039°35'0 3.5 25.2
2016-Jul-24 20:18N 30°27' W 039°35'0 0.0 25.2
2016-Jul-24 20:15N 30°27' W 039°35'1 2.7 25.2
2016-Jul-24 20:02N 30°28' W 039°35'1 5.9 25.2
2016-Jul-24 19:56N 30°27' W 039°35'1 0.6 25.2
2016-Jul-24 18:59N 30°28' W 039°35'0 0.9 25.2
2016-Jul-24 18:41N 30°28' W 039°35'1 2.0 25.2
2016-Jul-24 18:18N 30°28' W 039°34'0 0.0 25.2
2016-Jul-24 17:21N 30°28' W 039°34'1 4.0 25.1
2016-Jul-24 17:11N 30°28' W 039°33'2 0.4 25.1
2016-Jul-24 13:11N 30°28' W 039°31'124.3 25.0
2016-Jul-24 13:08N 30°29' W 039°30'0 0.1 25.0
2016-Jul-24 11:36N 30°29' W 039°30'0 0.0 25.0
2016-Jul-24 11:32N 30°29' W 039°30'0 9.5 25.0
2016-Jul-24 11:29N 30°30' W 039°30'0 0.0 25.0
2016-Jul-24 10:44N 30°30' W 039°30'1 1.1 25.0
2016-Jul-24 10:11N 30°30' W 039°30'0 0.0 24.9
2016-Jul-24 09:41N 30°30' W 039°30'112.7 24.9
2016-Jul-24 09:38N 30°31' W 039°29'0 0.2 25.0
2016-Jul-24 09:03N 30°31' W 039°29'1 1.2 24.9
2016-Jul-24 08:32N 30°31' W 039°29'0 9.4 24.9
2016-Jul-24 08:29N 30°32' W 039°29'0 1.4 24.9
2016-Jul-24 08:08N 30°31' W 039°29'0 0.8 25.0
2016-Jul-24 07:35N 30°31' W 039°29'0 5.7 25.0
2016-Jul-24 07:32N 30°32' W 039°29'0 0.0 25.0
2016-Jul-24 07:26N 30°32' W 039°29'0 0.0 25.0
2016-Jul-24 07:21N 30°32' W 039°29'117.3 25.0
2016-Jul-24 07:18N 30°32' W 039°28'0 0.0 25.0
2016-Jul-24 06:26N 30°32' W 039°28'0 0.0 25.0
2016-Jul-24 05:56N 30°32' W 039°28'1 0.7 25.0
2016-Jul-24 04:11N 30°33' W 039°29'126.4 25.0
2016-Jul-24 04:09N 30°34' W 039°28'0 0.0 25.0
2016-Jul-24 00:53N 30°34' W 039°28'0 1.0 25.1
2016-Jul-24 00:50N 30°34' W 039°28'1 0.4 25.1
2016-Jul-23 23:11N 30°34' W 039°27'0 0.3 25.1
2016-Jul-23 22:33N 30°34' W 039°27'0 0.4 25.1
2016-Jul-23 21:53N 30°34' W 039°27'1 6.6 25.1
2016-Jul-23 21:47N 30°34' W 039°26'0 0.0 25.1
2016-Jul-23 20:56N 30°34' W 039°26'1 3.5 25.2
2016-Jul-23 20:47N 30°34' W 039°25'0 0.0 25.2
2016-Jul-23 20:44N 30°34' W 039°25'0 2.9 25.2
2016-Jul-23 20:36N 30°35' W 039°26'0 0.0 25.2
2016-Jul-23 20:14N 30°35' W 039°26'0 0.0 25.2
2016-Jul-23 20:09N 30°35' W 039°26'0 0.4 25.2
2016-Jul-23 19:05N 30°35' W 039°25'0 0.6 25.2
2016-Jul-23 18:30N 30°35' W 039°25'1 0.7 25.2
2016-Jul-23 17:33N 30°35' W 039°24'0 1.1 25.2
2016-Jul-23 17:24N 30°35' W 039°24'1 1.0 25.1
2016-Jul-23 15:51N 30°36' W 039°23'1 0.5 25.1
2016-Jul-23 13:36N 30°37' W 039°22'1 0.6 24.9
2016-Jul-23 11:56N 30°38' W 039°21'1 5.5 24.9
2016-Jul-23 11:48N 30°38' W 039°21'0 0.0 24.9
2016-Jul-23 10:30N 30°38' W 039°21'0 2.3 24.8
2016-Jul-23 10:23N 30°38' W 039°22'0 0.0 24.8
2016-Jul-23 10:14N 30°38' W 039°22'111.9 24.8
2016-Jul-23 10:11N 30°39' W 039°21'0 0.0 24.8
2016-Jul-23 09:33N 30°39' W 039°21'0 0.6 24.8
2016-Jul-23 08:50N 30°39' W 039°21'0 0.0 24.8
2016-Jul-23 08:39N 30°39' W 039°21'0 4.0 24.8
2016-Jul-23 08:32N 30°39' W 039°20'0 0.0 24.8
2016-Jul-23 07:53N 30°39' W 039°20'1 6.7 24.8
2016-Jul-23 07:47N 30°40' W 039°20'0 0.2 24.8
2016-Jul-23 06:59N 30°39' W 039°20'1 1.1 24.8
2016-Jul-23 06:11N 30°40' W 039°19'0 0.0 24.9
2016-Jul-23 06:08N 30°40' W 039°19'1 8.6 24.9
2016-Jul-23 05:59N 30°41' W 039°19'2 1.0 24.9
2016-Jul-23 04:20N 30°42' W 039°18'0 0.1 24.9
2016-Jul-23 01:11N 30°42' W 039°18'115.9 25.0
2016-Jul-23 01:08N 30°42' W 039°18'1 0.7 25.0
2016-Jul-22 23:26N 30°43' W 039°17'0 0.0 25.0
2016-Jul-22 23:23N 30°43' W 039°17'0 0.0 25.0
2016-Jul-22 23:02N 30°43' W 039°17'1 0.6 25.0
2016-Jul-22 21:59N 30°43' W 039°16'0 0.0 25.1
2016-Jul-22 21:27N 30°43' W 039°16'0 0.8 25.1
2016-Jul-22 21:11N 30°43' W 039°17'0 1.6 25.1
2016-Jul-22 21:05N 30°43' W 039°16'0 0.5 25.1
2016-Jul-22 20:26N 30°43' W 039°16'0 0.0 25.1
2016-Jul-22 20:21N 30°43' W 039°16'0 0.7 25.1
2016-Jul-22 19:47N 30°43' W 039°16'0 1.2 25.1
2016-Jul-22 19:39N 30°43' W 039°16'0 0.0 25.1
2016-Jul-22 19:32N 30°43' W 039°16'1 0.7 25.1
2016-Jul-22 17:41N 30°43' W 039°14'0 0.0 25.1
2016-Jul-22 17:39N 30°43' W 039°14'1 0.8 25.1
2016-Jul-22 16:03N 30°44' W 039°13'1 0.5 25.1
2016-Jul-22 13:56N 30°45' W 039°12'1 4.4 25.0
2016-Jul-22 13:47N 30°45' W 039°11'0 0.1
2016-Jul-22 12:11N 30°45' W 039°12'0 4.7
2016-Jul-22 12:09N 30°45' W 039°12'1 0.7 24.9
2016-Jul-22 10:42N 30°45' W 039°11'0 0.4 24.8
2016-Jul-22 09:56N 30°45' W 039°10'1 4.3 24.8
2016-Jul-22 09:48N 30°45' W 039°10'1 1.4 24.8
2016-Jul-22 08:54N 30°46' W 039°09'1 0.8 24.8
2016-Jul-22 08:06N 30°47' W 039°08'0 0.0 24.8
2016-Jul-22 07:56N 30°47' W 039°08'0 0.0 24.8
2016-Jul-22 07:30N 30°47' W 039°08'0 1.4 24.9
2016-Jul-22 07:20N 30°47' W 039°08'1 0.8 24.9
2016-Jul-22 06:18N 30°48' W 039°07'1 8.7 24.9
2016-Jul-22 06:11N 30°49' W 039°07'1 0.5 24.9
2016-Jul-22 04:32N 30°49' W 039°07'0 0.0 24.9
2016-Jul-22 00:41N 30°49' W 039°07'1 5.1 25.0
2016-Jul-22 00:35N 30°49' W 039°06'0 0.0 25.0
2016-Jul-21 23:54N 30°49' W 039°06'1 0.7 25.0
2016-Jul-21 23:03N 30°49' W 039°06'1 0.5 25.1
2016-Jul-21 21:36N 30°49' W 039°05'1 5.3 25.1
2016-Jul-21 21:29N 30°49' W 039°04'0 0.0 25.1
2016-Jul-21 20:36N 30°49' W 039°04'0 0.0 25.1
2016-Jul-21 20:30N 30°49' W 039°04'0 0.5 25.1
2016-Jul-21 20:09N 30°49' W 039°04'0 0.2 25.1
2016-Jul-21 19:56N 30°49' W 039°04'1 0.9 25.1
2016-Jul-21 18:54N 30°50' W 039°03'0 3.7 25.1
2016-Jul-21 18:48N 30°50' W 039°03'0 0.3 25.1
2016-Jul-21 18:15N 30°50' W 039°03'0 0.0 25.1
2016-Jul-21 17:54N 30°50' W 039°03'1 0.5 25.1
2016-Jul-21 16:11N 30°50' W 039°02'3 0.7 25.1
2016-Jul-21 12:39N 30°50' W 038°59'0 0.0 24.9
2016-Jul-21 12:32N 30°50' W 038°59'123.8 24.9
2016-Jul-21 12:29N 30°50' W 038°58'1 0.8 24.9
2016-Jul-21 11:38N 30°50' W 038°57'0 0.0 24.9
2016-Jul-21 10:56N 30°50' W 038°57'0 2.3 24.9
2016-Jul-21 10:51N 30°51' W 038°57'1 1.3 24.9
2016-Jul-21 10:11N 30°51' W 038°57'0 0.0 24.9
2016-Jul-21 09:41N 30°51' W 038°57'0 2.4 24.8
2016-Jul-21 09:38N 30°51' W 038°57'1 8.7 24.8
2016-Jul-21 09:33N 30°52' W 038°57'0 0.0 24.8
2016-Jul-21 09:09N 30°52' W 038°57'1 1.0 24.9
2016-Jul-21 08:35N 30°52' W 038°56'1 1.4 24.9
2016-Jul-21 08:02N 30°53' W 038°56'1 1.9 24.9
2016-Jul-21 07:27N 30°54' W 038°56'0 0.0 24.9
2016-Jul-21 06:56N 30°54' W 038°56'0 6.2
2016-Jul-21 06:54N 30°54' W 038°55'0 0.2 25.0
2016-Jul-21 06:29N 30°54' W 038°56'1 4.5 25.0
2016-Jul-21 06:20N 30°55' W 038°56'1 0.5 25.0
2016-Jul-21 04:44N 30°54' W 038°56'0 0.0 25.0
2016-Jul-21 01:03N 30°54' W 038°56'0 1.1 25.0
2016-Jul-21 00:56N 30°54' W 038°55'1 0.9 25.0
2016-Jul-21 00:11N 30°54' W 038°55'1 0.9 25.1
2016-Jul-20 23:24N 30°54' W 038°54'1 3.6 25.1
2016-Jul-20 23:14N 30°54' W 038°53'0 0.0 25.1
2016-Jul-20 22:35N 30°54' W 038°53'0 2.1 25.1
2016-Jul-20 22:32N 30°54' W 038°53'0 3.6 25.1
2016-Jul-20 22:26N 30°54' W 038°53'0 1.0 25.1
2016-Jul-20 21:59N 30°54' W 038°53'0 0.0 25.1
2016-Jul-20 21:41N 30°54' W 038°53'1 0.6 25.1
2016-Jul-20 20:48N 30°54' W 038°52'0 1.0 25.2
2016-Jul-20 20:42N 30°54' W 038°52'0 9.5 25.2
2016-Jul-20 20:39N 30°55' W 038°51'0 1.3 25.2
2016-Jul-20 20:23N 30°54' W 038°51'1 3.2 25.2
2016-Jul-20 20:11N 30°55' W 038°51'0 0.0
2016-Jul-20 19:05N 30°55' W 038°51'0 0.0 25.2
2016-Jul-20 19:00N 30°55' W 038°51'1 2.4 25.2
2016-Jul-20 18:39N 30°55' W 038°50'0 0.0 25.2
2016-Jul-20 18:06N 30°55' W 038°50'1 0.6 25.2
2016-Jul-20 16:26N 30°56' W 038°49'3 1.0 25.2
2016-Jul-20 13:44N 30°57' W 038°46'0 0.0 25.1
2016-Jul-20 13:00N 30°57' W 038°46'1 3.6 25.1
2016-Jul-20 12:48N 30°57' W 038°46'1 0.6 25.1
2016-Jul-20 11:56N 30°58' W 038°45'0 0.0 25.0
2016-Jul-20 11:17N 30°58' W 038°45'0 0.6 25.0
2016-Jul-20 11:11N 30°58' W 038°45'0 2.5 25.0
2016-Jul-20 11:03N 30°58' W 038°45'0 7.2 25.0
2016-Jul-20 10:59N 30°58' W 038°45'0 0.0 25.0
2016-Jul-20 10:41N 30°58' W 038°45'0 0.4 25.0
2016-Jul-20 10:09N 30°58' W 038°45'1 7.7 25.0
2016-Jul-20 10:05N 30°58' W 038°45'1 0.9 25.0
2016-Jul-20 09:15N 30°59' W 038°45'0 0.4 25.0
2016-Jul-20 08:56N 30°59' W 038°45'0 0.0 25.0
2016-Jul-20 08:33N 30°59' W 038°45'1 3.9 25.0
2016-Jul-20 08:24N 30°59' W 038°44'   25.0

Dump ship's entire track history